Time;durP1;ratioP1;P1;durP2;ratioP2;P2;SDS_P1;SDS_P2;PMS_P1;PMS_P2;Temp;Humidity;BMP_temperature;BMP_pressure;BME280_temperature;BME280_humidity;BME280_pressure;Samples;Min_cycle;Max_cycle;Signal;HPM_P1;HPM_P2
2022/02/23 00:02:04;;;;;;;22.65;2.15;;;4.70;99.90;;;;;;5080015;28;20070;-69
2022/02/23 00:04:31;;;;;;;19.35;2.47;;;4.70;99.90;;;;;;5079975;28;20035;-69
2022/02/23 00:06:58;;;;;;;14.73;1.92;;;4.70;99.90;;;;;;5080067;28;20029;-69
2022/02/23 00:09:48;;;;;;;21.75;2.38;;;4.60;99.90;;;;;;5079450;28;20046;-69
2022/02/23 00:12:16;;;;;;;25.85;3.20;;;4.60;99.90;;;;;;5078991;28;20017;-69
2022/02/23 00:14:43;;;;;;;15.02;1.98;;;4.60;99.90;;;;;;5078901;28;20012;-69
2022/02/23 00:17:10;;;;;;;9.70;1.38;;;4.60;99.90;;;;;;5079014;28;20016;-69
2022/02/23 00:19:37;;;;;;;18.13;3.83;;;4.60;99.90;;;;;;5078751;28;20473;-69
2022/02/23 00:22:06;;;;;;;12.30;1.52;;;4.60;99.90;;;;;;5078474;28;20385;-69
2022/02/23 00:24:33;;;;;;;11.52;2.15;;;4.60;99.90;;;;;;5044742;28;20336;-69
2022/02/23 00:27:00;;;;;;;11.35;1.92;;;4.60;99.90;;;;;;5062108;28;20060;-69
2022/02/23 00:29:27;;;;;;;12.20;3.05;;;4.60;99.90;;;;;;5061561;28;20047;-69
2022/02/23 00:31:54;;;;;;;10.75;2.03;;;4.50;99.90;;;;;;5061713;28;20438;-69
2022/02/23 00:34:22;;;;;;;14.73;1.75;;;4.50;99.90;;;;;;5079411;28;20389;-69
2022/02/23 00:36:50;;;;;;;12.88;2.70;;;4.50;99.90;;;;;;5079614;28;20024;-69
2022/02/23 00:39:17;;;;;;;13.02;2.00;;;4.60;99.90;;;;;;5079604;28;20070;-69
2022/02/23 00:41:45;;;;;;;12.52;2.38;;;4.60;99.90;;;;;;5061295;28;20060;-69
2022/02/23 00:44:12;;;;;;;19.92;3.13;;;4.50;99.90;;;;;;5078357;28;20325;-69
2022/02/23 00:46:40;;;;;;;20.13;1.90;;;4.50;99.90;;;;;;5078287;28;20357;-69
2022/02/23 00:49:07;;;;;;;13.65;1.50;;;4.50;99.90;;;;;;5079246;28;20327;-69
2022/02/23 00:51:35;;;;;;;16.23;2.58;;;4.50;99.90;;;;;;5078692;28;20121;-69
2022/02/23 00:54:02;;;;;;;13.60;2.72;;;4.50;99.90;;;;;;5078410;28;20017;-69
2022/02/23 00:56:30;;;;;;;10.48;1.20;;;4.50;99.90;;;;;;5078156;28;20435;-69
2022/02/23 00:58:58;;;;;;;16.13;3.08;;;4.50;99.90;;;;;;5078446;28;20028;-69
2022/02/23 01:01:25;;;;;;;21.77;2.28;;;4.50;99.90;;;;;;5079007;28;20138;-69
2022/02/23 01:03:52;;;;;;;10.95;1.92;;;4.50;99.90;;;;;;5078774;28;20417;-69
2022/02/23 01:06:20;;;;;;;11.70;2.13;;;4.60;99.90;;;;;;5061574;28;20025;-69
2022/02/23 01:08:48;;;;;;;13.32;1.58;;;4.50;99.90;;;;;;5061763;28;20412;-69
2022/02/23 01:11:20;;;;;;;9.15;1.55;;;4.60;99.90;;;;;;5078816;28;20017;-69
2022/02/23 01:13:48;;;;;;;12.65;2.25;;;4.60;99.90;;;;;;5078627;28;20026;-69
2022/02/23 01:16:15;;;;;;;22.00;3.05;;;4.50;99.90;;;;;;5061226;28;20059;-69
2022/02/23 01:18:43;;;;;;;27.02;4.72;;;4.50;99.90;;;;;;5077550;28;20020;-69
2022/02/23 01:21:11;;;;;;;13.88;1.95;;;4.50;99.90;;;;;;5077776;28;20024;-69
2022/02/23 01:23:38;;;;;;;23.63;2.55;;;4.50;99.90;;;;;;5039838;28;20352;-69
2022/02/23 01:26:06;;;;;;;13.95;3.15;;;4.40;99.90;;;;;;5058313;28;20361;-69
2022/02/23 01:28:33;;;;;;;15.85;1.73;;;4.40;99.90;;;;;;5057484;28;20027;-69
2022/02/23 01:31:01;;;;;;;21.73;3.60;;;4.40;99.90;;;;;;5056523;28;20025;-69
2022/02/23 01:33:29;;;;;;;8.43;2.28;;;4.40;99.90;;;;;;5057912;28;20021;-69
2022/02/23 01:35:56;;;;;;;21.38;2.42;;;4.40;99.90;;;;;;5057784;28;20021;-69
2022/02/23 01:38:23;;;;;;;11.10;1.67;;;4.40;99.90;;;;;;5040749;28;20021;-69
2022/02/23 01:40:50;;;;;;;17.10;2.42;;;4.40;99.90;;;;;;5040660;28;20047;-69
2022/02/23 01:43:18;;;;;;;13.27;2.20;;;4.40;99.90;;;;;;5058619;28;20024;-69
2022/02/23 01:45:46;;;;;;;14.13;2.25;;;4.50;99.90;;;;;;5058636;28;20024;-69
2022/02/23 01:48:13;;;;;;;14.63;2.33;;;4.50;99.90;;;;;;5058215;28;20025;-69
2022/02/23 01:50:41;;;;;;;15.02;2.17;;;4.60;99.90;;;;;;5058163;28;20076;-69
2022/02/23 01:53:09;;;;;;;17.33;2.20;;;4.60;99.90;;;;;;5057242;28;20027;-69
2022/02/23 01:55:37;;;;;;;13.63;1.50;;;4.60;99.90;;;;;;5055937;28;20025;-69
2022/02/23 01:58:05;;;;;;;18.65;3.00;;;4.60;99.90;;;;;;5057468;28;20021;-69
2022/02/23 02:00:33;;;;;;;10.75;1.30;;;4.60;99.90;;;;;;5057093;28;20033;-69
2022/02/23 02:03:01;;;;;;;7.60;1.23;;;4.60;99.90;;;;;;5055796;28;20033;-69
2022/02/23 02:05:28;;;;;;;17.92;2.13;;;4.60;99.90;;;;;;5057328;28;20031;-69
2022/02/23 02:07:56;;;;;;;14.50;1.83;;;4.60;99.90;;;;;;5055634;28;20029;-69
2022/02/23 02:10:23;;;;;;;10.15;2.22;;;4.60;99.90;;;;;;5057376;28;20104;-68
2022/02/23 02:12:51;;;;;;;12.25;1.50;;;4.60;99.90;;;;;;5056378;28;20108;-68
2022/02/23 02:15:18;;;;;;;16.10;2.10;;;4.60;99.90;;;;;;5058155;28;20415;-68
2022/02/23 02:17:45;;;;;;;7.97;1.20;;;4.60;99.90;;;;;;5057620;28;20021;-69
2022/02/23 02:20:13;;;;;;;13.48;1.70;;;4.60;99.90;;;;;;5057579;28;20459;-69
2022/02/23 02:22:40;;;;;;;12.35;2.42;;;4.60;99.90;;;;;;5056809;28;20053;-69
2022/02/23 02:25:08;;;;;;;17.05;1.75;;;4.50;99.90;;;;;;5057498;28;20094;-69
2022/02/23 02:27:36;;;;;;;19.92;2.03;;;4.50;99.90;;;;;;5056755;28;20324;-69
2022/02/23 02:30:06;;;;;;;7.90;1.88;;;4.50;99.90;;;;;;5057456;28;20025;-69
2022/02/23 02:32:34;;;;;;;9.43;1.27;;;4.40;99.90;;;;;;5056557;28;20310;-69
2022/02/23 02:35:01;;;;;;;10.63;1.30;;;4.40;99.90;;;;;;5057021;28;20021;-69
2022/02/23 02:37:28;;;;;;;17.52;2.63;;;4.40;99.90;;;;;;5056454;28;20021;-69
2022/02/23 02:39:56;;;;;;;12.52;2.20;;;4.40;99.90;;;;;;5056936;28;20108;-69
2022/02/23 02:42:23;;;;;;;16.33;2.70;;;4.40;99.90;;;;;;5055287;28;20028;-69
2022/02/23 02:44:51;;;;;;;13.55;3.00;;;4.40;99.90;;;;;;5057089;28;20413;-69
2022/02/23 02:47:20;;;;;;;12.07;1.58;;;4.30;99.90;;;;;;5056266;28;20036;-69
2022/02/23 02:49:49;;;;;;;13.80;2.33;;;4.30;99.90;;;;;;5056838;28;20029;-69
2022/02/23 02:52:16;;;;;;;11.38;2.88;;;4.30;99.90;;;;;;5058443;28;20017;-68
2022/02/23 02:54:43;;;;;;;18.88;2.08;;;4.30;99.90;;;;;;5061274;28;20044;-69
2022/02/23 02:57:11;;;;;;;11.75;2.22;;;4.30;99.90;;;;;;5061342;28;20444;-69
2022/02/23 02:59:39;;;;;;;6.72;2.38;;;4.20;99.90;;;;;;5061782;28;20047;-69
2022/02/23 03:02:06;;;;;;;24.45;2.63;;;4.20;99.90;;;;;;5061366;28;20092;-69
2022/02/23 03:04:34;;;;;;;11.57;1.83;;;4.20;99.90;;;;;;5061455;28;20032;-69
2022/02/23 03:07:01;;;;;;;21.00;3.63;;;4.20;99.90;;;;;;5060170;28;20420;-69
2022/02/23 03:09:28;;;;;;;11.13;1.92;;;4.10;99.90;;;;;;5059976;28;20033;-69
2022/02/23 03:11:56;;;;;;;9.25;1.73;;;4.10;99.90;;;;;;5060797;28;20024;-69
2022/02/23 03:14:23;;;;;;;15.75;2.42;;;4.10;99.90;;;;;;5060559;28;20017;-69
2022/02/23 03:16:50;;;;;;;22.75;3.45;;;4.10;99.90;;;;;;5060019;28;20017;-69
2022/02/23 03:19:18;;;;;;;24.35;2.72;;;4.10;99.90;;;;;;5059945;28;20024;-69
2022/02/23 03:21:45;;;;;;;12.50;2.00;;;4.10;99.90;;;;;;5060609;28;20029;-69
2022/02/23 03:24:13;;;;;;;13.80;2.00;;;4.20;99.90;;;;;;5078629;28;20056;-69
2022/02/23 03:26:41;;;;;;;14.60;3.28;;;4.10;99.90;;;;;;5080700;28;20404;-69
2022/02/23 03:29:08;;;;;;;22.15;2.55;;;4.10;99.90;;;;;;5080701;28;20074;-69
2022/02/23 03:31:35;;;;;;;15.13;2.20;;;4.10;99.90;;;;;;5081220;28;20021;-69
2022/02/23 03:34:02;;;;;;;16.42;2.17;;;4.10;99.90;;;;;;5080586;28;20103;-69
2022/02/23 03:36:30;;;;;;;10.88;1.65;;;4.00;99.90;;;;;;5080606;28;20024;-69
2022/02/23 03:38:57;;;;;;;10.32;1.95;;;4.00;99.90;;;;;;5081097;28;20087;-69
2022/02/23 03:41:25;;;;;;;11.98;2.17;;;4.00;99.90;;;;;;5062457;28;20438;-69
2022/02/23 03:43:52;;;;;;;11.25;1.88;;;4.00;99.90;;;;;;5080057;28;20460;-69
2022/02/23 03:46:20;;;;;;;25.55;2.88;;;4.00;99.90;;;;;;5080032;28;20024;-69
2022/02/23 03:48:48;;;;;;;21.33;2.00;;;4.00;99.90;;;;;;5079435;28;20309;-69
2022/02/23 03:51:15;;;;;;;18.95;2.47;;;4.00;99.90;;;;;;5061756;28;20029;-69
2022/02/23 03:53:43;;;;;;;19.15;2.75;;;4.00;99.90;;;;;;5079282;28;20021;-69
2022/02/23 03:56:38;;;;;;;26.25;2.90;;;3.90;99.90;;;;;;5079350;28;20021;-69
2022/02/23 03:58:58;;;;;;;16.13;2.70;;;3.90;99.90;;;;;;5078846;28;20017;-69
2022/02/23 04:01:26;;;;;;;11.88;2.45;;;3.90;99.90;;;;;;5062217;28;20025;-69
2022/02/23 04:03:53;;;;;;;20.02;2.40;;;3.90;99.90;;;;;;5078786;28;20024;-69
2022/02/23 04:06:23;;;;;;;19.60;2.38;;;3.90;99.90;;;;;;5079931;28;20035;-69
2022/02/23 04:08:51;;;;;;;15.13;2.13;;;3.90;99.90;;;;;;5046813;28;20412;-68
2022/02/23 04:11:19;;;;;;;15.05;3.65;;;3.80;99.90;;;;;;5080274;28;20056;-69
2022/02/23 04:13:47;;;;;;;13.55;2.10;;;3.90;99.90;;;;;;5080458;28;20117;-69
2022/02/23 04:16:14;;;;;;;11.95;2.45;;;3.80;99.90;;;;;;5079910;28;20020;-69
2022/02/23 04:18:48;;;;;;;11.25;1.45;;;3.80;99.90;;;;;;5079395;28;20017;-69
2022/02/23 04:21:16;;;;;;;17.42;2.10;;;3.80;99.90;;;;;;5061252;28;20115;-69
2022/02/23 04:23:44;;;;;;;18.00;3.17;;;3.80;99.90;;;;;;5078839;28;20474;-69
2022/02/23 04:26:13;;;;;;;16.13;2.10;;;3.70;99.90;;;;;;5079386;28;20093;-69
2022/02/23 04:28:40;;;;;;;11.52;2.85;;;3.70;99.90;;;;;;5079257;28;20020;-69
2022/02/23 04:31:07;;;;;;;13.65;2.35;;;3.70;99.90;;;;;;5078699;28;20035;-69
2022/02/23 04:33:38;;;;;;;22.88;3.20;;;3.70;99.90;;;;;;5078628;28;20368;-69
2022/02/23 04:36:08;;;;;;;11.57;2.92;;;3.70;99.90;;;;;;5078617;28;20362;-69
2022/02/23 04:38:39;;;;;;;15.13;2.15;;;3.70;99.90;;;;;;5078990;28;20025;-69
2022/02/23 04:41:08;;;;;;;17.30;3.05;;;3.70;99.90;;;;;;5079544;28;20017;-69
2022/02/23 04:43:36;;;;;;;17.90;2.40;;;3.70;99.90;;;;;;5079591;28;20028;-69
2022/02/23 04:46:10;;;;;;;10.98;2.70;;;3.70;99.90;;;;;;5079830;28;20481;-68
2022/02/23 04:48:42;;;;;;;14.07;3.47;;;3.70;99.90;;;;;;5079358;28;20108;-69
2022/02/23 04:51:09;;;;;;;11.75;1.77;;;3.70;99.90;;;;;;5079542;28;20028;-69
2022/02/23 04:53:37;;;;;;;16.67;2.60;;;3.70;99.90;;;;;;5079070;28;20309;-69
2022/02/23 04:56:06;;;;;;;19.85;2.28;;;3.70;99.90;;;;;;5078876;28;20096;-69
2022/02/23 04:58:33;;;;;;;25.05;2.60;;;3.60;99.90;;;;;;5078623;28;20035;-69
2022/02/23 05:01:01;;;;;;;12.48;2.05;;;3.60;99.90;;;;;;5060560;28;20032;-69
2022/02/23 05:03:28;;;;;;;25.92;2.88;;;3.60;99.90;;;;;;5077954;28;20028;-69
2022/02/23 05:05:56;;;;;;;15.13;2.90;;;3.60;99.90;;;;;;5061042;28;20047;-69
2022/02/23 05:08:23;;;;;;;18.30;2.40;;;3.50;99.90;;;;;;5060322;28;20024;-69
2022/02/23 05:10:51;;;;;;;12.65;2.92;;;3.50;99.90;;;;;;5077934;28;20331;-69
2022/02/23 05:13:19;;;;;;;24.50;2.55;;;3.40;99.90;;;;;;5077781;28;20099;-69
2022/02/23 05:15:46;;;;;;;23.27;3.28;;;3.40;99.90;;;;;;5060485;28;20019;-69
2022/02/23 05:18:13;;;;;;;11.98;2.67;;;3.40;99.90;;;;;;5078587;28;20016;-69
2022/02/23 05:20:41;;;;;;;21.17;3.35;;;3.40;99.90;;;;;;5061048;28;20031;-69
2022/02/23 05:23:10;;;;;;;15.30;2.97;;;3.40;99.90;;;;;;5078692;28;20482;-69
2022/02/23 05:25:37;;;;;;;24.02;3.75;;;3.40;99.90;;;;;;5078503;28;20112;-69
2022/02/23 05:28:05;;;;;;;16.38;2.50;;;3.50;99.90;;;;;;5078938;28;20025;-69
2022/02/23 05:30:33;;;;;;;17.40;2.95;;;3.40;99.90;;;;;;5078846;28;20024;-69
2022/02/23 05:33:00;;;;;;;28.13;2.85;;;3.40;99.90;;;;;;5078768;28;20020;-69
2022/02/23 05:35:28;;;;;;;17.27;3.97;;;3.40;99.90;;;;;;5078132;28;20428;-69
2022/02/23 05:37:55;;;;;;;18.23;3.13;;;3.40;99.90;;;;;;5077629;28;20044;-69
2022/02/23 05:40:23;;;;;;;16.35;2.97;;;3.40;99.90;;;;;;5077287;28;20479;-69
2022/02/23 05:42:50;;;;;;;11.63;2.42;;;3.40;99.90;;;;;;5077699;28;20028;-69
2022/02/23 05:45:21;;;;;;;18.17;3.63;;;3.40;99.90;;;;;;5077287;28;20024;-69
2022/02/23 05:47:48;;;;;;;23.05;3.42;;;3.40;99.90;;;;;;5059620;28;20125;-69
2022/02/23 05:50:16;;;;;;;23.70;2.75;;;3.40;99.90;;;;;;5077056;28;20107;-69
2022/02/23 05:52:44;;;;;;;16.45;2.58;;;3.40;99.90;;;;;;5077343;28;20028;-69
2022/02/23 05:55:12;;;;;;;17.10;2.45;;;3.30;99.90;;;;;;5077903;28;20439;-69
2022/02/23 05:57:40;;;;;;;21.33;3.00;;;3.30;99.90;;;;;;5078655;28;20096;-69
2022/02/23 06:00:08;;;;;;;19.23;2.50;;;3.20;99.90;;;;;;5077927;28;20031;-69
2022/02/23 06:02:35;;;;;;;18.88;2.58;;;3.20;99.90;;;;;;5060126;28;20029;-69
2022/02/23 06:05:03;;;;;;;17.30;2.95;;;3.20;99.90;;;;;;5077746;28;20024;-69
2022/02/23 06:07:31;;;;;;;22.50;3.72;;;3.20;99.90;;;;;;5077815;28;20107;-69
2022/02/23 06:09:58;;;;;;;20.23;3.05;;;3.20;99.90;;;;;;5076827;28;20319;-69
2022/02/23 06:12:26;;;;;;;15.23;2.42;;;3.10;99.90;;;;;;5077298;28;20016;-69
2022/02/23 06:14:53;;;;;;;14.93;3.17;;;3.10;99.90;;;;;;5076758;28;20032;-69
2022/02/23 06:17:21;;;;;;;18.60;3.17;;;3.10;99.90;;;;;;5059250;28;20084;-69
2022/02/23 06:19:48;;;;;;;25.10;3.65;;;3.10;99.90;;;;;;5058858;28;20021;-69
2022/02/23 06:22:16;;;;;;;15.07;2.92;;;3.10;99.90;;;;;;5077135;28;20104;-69
2022/02/23 06:24:43;;;;;;;14.07;1.90;;;3.10;99.90;;;;;;5077129;28;20095;-69
2022/02/23 06:27:13;;;;;;;20.48;2.63;;;3.10;99.90;;;;;;5076452;28;20035;-69
2022/02/23 06:29:43;;;;;;;18.58;2.60;;;3.10;99.90;;;;;;5077720;28;20035;-69
2022/02/23 06:32:11;;;;;;;14.50;4.03;;;3.10;99.90;;;;;;5078172;28;20095;-69
2022/02/23 06:34:38;;;;;;;16.67;2.85;;;3.10;99.90;;;;;;5077377;28;20320;-69
2022/02/23 06:37:06;;;;;;;29.50;4.70;;;3.10;99.90;;;;;;5077440;28;20017;-69
2022/02/23 06:39:43;;;;;;;17.85;3.22;;;3.10;99.90;;;;;;5059601;28;20116;-69
2022/02/23 06:42:12;;;;;;;25.92;4.40;;;3.10;99.90;;;;;;5077709;28;20032;-69
2022/02/23 06:44:39;;;;;;;15.77;2.88;;;3.10;99.90;;;;;;5076457;28;20020;-69
2022/02/23 06:47:07;;;;;;;11.15;1.60;;;3.20;99.90;;;;;;5076420;28;20025;-69
2022/02/23 06:49:39;;;;;;;20.27;4.18;;;3.20;99.90;;;;;;5076793;28;20020;-69
2022/02/23 06:52:10;;;;;;;20.25;2.58;;;3.20;99.90;;;;;;5059562;28;20027;-69
2022/02/23 06:54:38;;;;;;;16.10;4.07;;;3.20;99.90;;;;;;5076291;28;20135;-69
2022/02/23 06:57:09;;;;;;;13.45;2.50;;;3.20;99.90;;;;;;5058485;28;20020;-69
2022/02/23 06:59:40;;;;;;;15.45;3.33;;;3.30;99.90;;;;;;5076264;28;20021;-68
2022/02/23 07:02:09;;;;;;;11.10;2.05;;;3.30;99.90;;;;;;5059016;28;20025;-70
2022/02/23 07:04:36;;;;;;;15.00;2.67;;;3.40;99.90;;;;;;5077206;28;20024;-68
2022/02/23 07:07:03;;;;;;;23.98;3.20;;;3.40;99.90;;;;;;5059960;28;20392;-69
2022/02/23 07:09:31;;;;;;;23.17;2.92;;;3.40;99.90;;;;;;5077096;28;20096;-73
2022/02/23 07:12:03;;;;;;;15.60;3.20;;;3.40;99.90;;;;;;5077329;28;20016;-72
2022/02/23 07:14:30;;;;;;;17.30;1.73;;;3.40;99.90;;;;;;5059284;28;20481;-74
2022/02/23 07:16:57;;;;;;;16.05;3.00;;;3.50;99.90;;;;;;5059309;28;20413;-74
2022/02/23 07:19:25;;;;;;;14.43;1.80;;;3.50;99.90;;;;;;5076902;28;20020;-73
2022/02/23 07:21:52;;;;;;;17.10;2.50;;;3.40;99.90;;;;;;5076708;28;20029;-73
2022/02/23 07:24:20;;;;;;;20.83;4.10;;;3.50;99.90;;;;;;5075887;28;20464;-73
2022/02/23 07:26:47;;;;;;;16.63;3.78;;;3.50;99.90;;;;;;5058259;28;20458;-74
2022/02/23 07:29:18;;;;;;;21.02;2.22;;;3.50;99.90;;;;;;5075922;28;20055;-74
2022/02/23 07:31:46;;;;;;;26.58;3.45;;;3.50;99.90;;;;;;5058714;28;20060;-74
2022/02/23 07:34:14;;;;;;;18.55;3.10;;;3.50;99.90;;;;;;5076017;28;20017;-74
2022/02/23 07:36:42;;;;;;;14.32;2.63;;;3.50;99.90;;;;;;5076313;28;20025;-74
2022/02/23 07:39:11;;;;;;;20.90;2.45;;;3.60;99.90;;;;;;5079028;28;20383;-73
2022/02/23 07:41:39;;;;;;;15.90;3.33;;;3.60;99.90;;;;;;5081113;28;20020;-72
2022/02/23 07:44:06;;;;;;;18.80;2.90;;;3.60;99.90;;;;;;5080469;28;20103;-73
2022/02/23 07:46:34;;;;;;;21.05;4.00;;;3.60;99.90;;;;;;5081132;28;20027;-73
2022/02/23 07:49:01;;;;;;;29.63;4.35;;;3.60;99.90;;;;;;5080444;28;20048;-73
2022/02/23 07:51:29;;;;;;;18.00;2.92;;;3.60;99.90;;;;;;5080669;28;20029;-74
2022/02/23 07:53:58;;;;;;;28.08;4.10;;;3.60;99.90;;;;;;5080229;28;20021;-74
2022/02/23 07:56:27;;;;;;;21.77;3.95;;;3.70;99.90;;;;;;5079442;28;20025;-73
2022/02/23 07:58:54;;;;;;;18.55;3.40;;;3.70;99.90;;;;;;5079318;28;20066;-73
2022/02/23 08:01:37;;;;;;;14.20;2.70;;;3.70;99.90;;;;;;5079313;28;20021;-73
2022/02/23 08:04:07;;;;;;;19.58;3.70;;;3.80;99.90;;;;;;5079497;28;20093;-73
2022/02/23 08:06:36;;;;;;;21.73;2.92;;;3.80;99.90;;;;;;5079925;28;20345;-73
2022/02/23 08:09:07;;;;;;;17.65;3.35;;;3.80;99.90;;;;;;5079057;28;20032;-73
2022/02/23 08:11:37;;;;;;;17.17;3.47;;;3.90;99.90;;;;;;5079018;28;20021;-75
2022/02/23 08:14:05;;;;;;;20.55;2.53;;;3.90;99.90;;;;;;5079690;28;20016;-69
2022/02/23 08:19:41;;;;;;;;;;;4.00;99.90;;;;;;5080464;28;20024;-70
2022/02/23 08:22:13;;;;;;;15.48;3.60;;;4.10;99.90;;;;;;5079290;28;20211;-70
2022/02/23 08:24:44;;;;;;;16.95;2.85;;;4.20;99.90;;;;;;5079883;28;20407;-70
2022/02/23 08:27:17;;;;;;;22.10;2.85;;;4.30;99.90;;;;;;5081878;28;20050;-70
2022/02/23 08:29:45;;;;;;;14.60;2.15;;;4.40;99.90;;;;;;5079318;28;20021;-70
2022/02/23 08:32:15;;;;;;;17.67;2.60;;;4.50;99.90;;;;;;5061032;28;20048;-70
2022/02/23 08:34:47;;;;;;;12.93;4.00;;;4.60;99.90;;;;;;5078715;28;20025;-70
2022/02/23 08:37:17;;;;;;;18.08;3.17;;;4.70;99.90;;;;;;5078801;28;20099;-70
2022/02/23 08:39:45;;;;;;;18.85;6.15;;;4.80;99.90;;;;;;5079328;28;20016;-70
2022/02/23 08:42:14;;;;;;;9.40;2.17;;;4.90;99.90;;;;;;5079358;28;20111;-70
2022/02/23 08:44:42;;;;;;;16.88;4.07;;;4.90;99.90;;;;;;5079385;28;20078;-70
2022/02/23 08:47:10;;;;;;;22.65;3.45;;;5.00;99.90;;;;;;5079500;28;20032;-70
2022/02/23 08:49:37;;;;;;;13.35;3.28;;;5.00;99.90;;;;;;5079437;28;20025;-70
2022/02/23 08:52:05;;;;;;;23.75;4.63;;;5.10;99.90;;;;;;5061876;28;20020;-70
2022/02/23 08:54:33;;;;;;;13.80;2.47;;;5.10;99.90;;;;;;5079229;28;20021;-70
2022/02/23 08:57:00;;;;;;;17.50;3.38;;;5.20;99.90;;;;;;5078967;28;20016;-70
2022/02/23 08:59:29;;;;;;;18.88;4.35;;;5.20;99.90;;;;;;5078176;28;20446;-71
2022/02/23 09:01:57;;;;;;;16.05;2.28;;;5.30;99.90;;;;;;5078081;28;20036;-70
2022/02/23 09:04:24;;;;;;;12.10;2.88;;;5.40;99.90;;;;;;5078661;28;20016;-70
2022/02/23 09:06:52;;;;;;;10.80;3.25;;;5.40;99.90;;;;;;5078507;28;20017;-71
2022/02/23 09:09:20;;;;;;;19.73;3.08;;;5.40;99.90;;;;;;5078038;28;20066;-70
2022/02/23 09:11:48;;;;;;;12.00;2.40;;;5.50;99.90;;;;;;5078445;28;20016;-70
2022/02/23 09:14:16;;;;;;;14.88;3.33;;;5.50;99.90;;;;;;5077917;28;20041;-71
2022/02/23 09:16:45;;;;;;;13.38;3.05;;;5.50;99.90;;;;;;5078867;28;20025;-71
2022/02/23 09:19:13;;;;;;;19.23;4.88;;;5.50;99.90;;;;;;5078728;28;20293;-71
2022/02/23 09:21:42;;;;;;;17.35;3.17;;;5.50;99.90;;;;;;5078940;28;20058;-70
2022/02/23 09:24:09;;;;;;;20.95;3.40;;;5.60;99.90;;;;;;5078533;28;20052;-71
2022/02/23 09:26:37;;;;;;;14.88;3.10;;;5.60;99.90;;;;;;5078764;28;20020;-71
2022/02/23 09:29:05;;;;;;;17.35;2.75;;;5.70;99.90;;;;;;5078571;28;20159;-70
2022/02/23 09:31:32;;;;;;;20.42;2.58;;;5.70;99.90;;;;;;5078405;28;20023;-70
2022/02/23 09:34:00;;;;;;;10.57;2.92;;;5.70;99.90;;;;;;5059740;28;20020;-71
2022/02/23 09:36:27;;;;;;;9.98;2.00;;;5.80;99.90;;;;;;5077551;28;20020;-71
2022/02/23 09:38:56;;;;;;;13.45;2.70;;;5.80;99.90;;;;;;5077429;28;20451;-70
2022/02/23 09:41:24;;;;;;;19.10;3.63;;;5.90;99.90;;;;;;5059582;28;20077;-70
2022/02/23 09:43:54;;;;;;;12.90;2.80;;;5.90;99.90;;;;;;5059564;28;20497;-71
2022/02/23 09:46:24;;;;;;;13.65;2.70;;;6.00;99.90;;;;;;5077901;28;20024;-71
2022/02/23 09:48:53;;;;;;;17.30;3.72;;;6.10;99.90;;;;;;5077103;28;20085;-71
2022/02/23 09:51:21;;;;;;;14.73;2.72;;;6.10;99.90;;;;;;5077892;28;20024;-71
2022/02/23 09:53:49;;;;;;;9.18;2.58;;;6.20;99.90;;;;;;5044023;28;20017;-71
2022/02/23 09:56:18;;;;;;;12.98;3.35;;;6.30;99.90;;;;;;5078068;28;20416;-70
2022/02/23 09:58:47;;;;;;;16.55;3.13;;;6.30;99.90;;;;;;5078534;28;20308;-70
2022/02/23 10:01:15;;;;;;;20.02;3.00;;;6.40;99.90;;;;;;5078136;28;20025;-70
2022/02/23 10:03:45;;;;;;;14.55;2.40;;;6.50;99.90;;;;;;5060133;28;20040;-70
2022/02/23 10:06:30;;;;;;;13.85;2.25;;;6.60;99.90;;;;;;5077910;28;20029;-70
2022/02/23 10:09:12;;;;;;;17.30;3.55;;;6.60;99.90;;;;;;5059703;28;20021;-71
2022/02/23 10:11:42;;;;;;;12.43;2.40;;;6.70;99.90;;;;;;5077358;28;20103;-70
2022/02/23 10:14:11;;;;;;;15.23;2.58;;;6.70;99.90;;;;;;5076854;28;20047;-70
2022/02/23 10:16:41;;;;;;;11.30;2.85;;;6.70;99.90;;;;;;5059911;28;20415;-70
2022/02/23 10:19:22;;;;;;;11.85;3.13;;;6.80;99.90;;;;;;5058995;28;20141;-70
2022/02/23 10:21:56;;;;;;;10.93;1.98;;;6.80;99.90;;;;;;5076716;28;20111;-70
2022/02/23 10:24:31;;;;;;;21.83;4.60;;;6.90;99.90;;;;;;5076488;28;20076;-71
2022/02/23 10:27:02;;;;;;;11.70;4.28;;;7.00;99.90;;;;;;5076766;28;20024;-71
2022/02/23 10:29:34;;;;;;;12.70;2.22;;;7.00;99.90;;;;;;5077141;28;20078;-70
2022/02/23 10:32:08;;;;;;;11.68;2.78;;;7.10;99.90;;;;;;5077801;28;20031;-70
2022/02/23 10:34:43;;;;;;;12.73;3.15;;;7.20;99.90;;;;;;5077562;28;20021;-70
2022/02/23 10:37:12;;;;;;;13.82;2.38;;;7.20;99.90;;;;;;5077560;28;20029;-70
2022/02/23 10:39:54;;;;;;;15.80;2.90;;;7.30;99.90;;;;;;5077507;28;20294;-71
2022/02/23 10:42:29;;;;;;;13.00;1.92;;;7.30;99.90;;;;;;5078025;28;20470;-70
2022/02/23 10:44:58;;;;;;;11.77;1.73;;;7.40;99.90;;;;;;5077324;28;20320;-70
2022/02/23 10:47:39;;;;;;;22.58;2.95;;;7.50;99.90;;;;;;5077244;28;20016;-71
2022/02/23 10:50:14;;;;;;;7.60;1.83;;;7.60;99.90;;;;;;5076119;28;20057;-70
2022/02/23 10:52:59;;;;;;;8.82;1.50;;;7.60;99.90;;;;;;5076471;28;20420;-71
2022/02/23 10:55:31;;;;;;;5.15;1.50;;;7.70;99.90;;;;;;5076554;28;20031;-70
2022/02/23 10:58:02;;;;;;;9.02;1.92;;;7.70;99.90;;;;;;5076357;28;20012;-70
2022/02/23 11:00:36;;;;;;;14.43;2.22;;;7.70;99.90;;;;;;5076406;28;20024;-70
2022/02/23 11:03:04;;;;;;;11.68;1.70;;;7.80;99.90;;;;;;5076332;28;20031;-71
2022/02/23 11:05:33;;;;;;;5.72;1.45;;;7.80;99.90;;;;;;5076691;28;20028;-70
2022/02/23 11:08:03;;;;;;;4.10;1.05;;;7.90;99.90;;;;;;5077493;28;20099;-70
2022/02/23 11:10:32;;;;;;;13.85;2.17;;;7.90;99.90;;;;;;5077160;28;20029;-70
2022/02/23 11:13:00;;;;;;;6.55;1.75;;;8.00;99.90;;;;;;5077786;28;20025;-70
2022/02/23 11:15:33;;;;;;;7.78;1.40;;;8.10;99.90;;;;;;5081223;28;20017;-70
2022/02/23 11:18:01;;;;;;;9.50;1.77;;;8.10;99.90;;;;;;5063308;28;20028;-70
2022/02/23 11:20:31;;;;;;;6.95;1.35;;;8.20;99.90;;;;;;5081065;28;20051;-70
2022/02/23 11:23:02;;;;;;;10.45;1.88;;;8.20;99.90;;;;;;5080881;28;20120;-71
2022/02/23 11:25:37;;;;;;;14.73;1.73;;;8.30;99.90;;;;;;5079869;28;20032;-71
2022/02/23 11:28:22;;;;;;;7.22;2.40;;;8.40;99.90;;;;;;5079981;28;20028;-70
2022/02/23 11:31:14;;;;;;;9.57;1.70;;;8.40;99.90;;;;;;5079991;28;20031;-71
2022/02/23 11:33:48;;;;;;;9.20;1.73;;;8.40;99.90;;;;;;5079689;28;20481;-70
2022/02/23 11:36:42;;;;;;;11.20;1.50;;;8.50;99.90;;;;;;5080330;28;20024;-71
2022/02/23 11:39:17;;;;;;;6.70;1.63;;;8.60;99.90;;;;;;5079642;28;20016;-70
2022/02/23 11:42:07;;;;;;;4.93;1.15;;;8.60;99.90;;;;;;5079822;28;20024;-71
2022/02/23 11:44:39;;;;;;;6.88;1.52;;;8.70;99.90;;;;;;5080252;28;20029;-69
2022/02/23 11:47:21;;;;;;;9.25;1.73;;;8.70;99.90;;;;;;5080330;28;20024;-70
2022/02/23 11:49:53;;;;;;;8.57;1.75;;;8.70;99.90;;;;;;5080438;28;20025;-70
2022/02/23 11:52:22;;;;;;;6.38;1.27;;;8.70;99.90;;;;;;5080583;28;20048;-70
2022/02/23 11:55:12;;;;;;;7.50;1.20;;;8.70;99.90;;;;;;5080964;28;20051;-70
2022/02/23 11:57:53;;;;;;;5.97;1.20;;;8.70;99.90;;;;;;5081036;28;20078;-70
2022/02/23 12:00:30;;;;;;;6.25;1.55;;;8.80;99.90;;;;;;5062588;28;20025;-70
2022/02/23 12:02:59;;;;;;;6.80;1.48;;;8.90;99.90;;;;;;5079185;28;20029;-70
2022/02/23 12:05:47;;;;;;;11.32;1.85;;;9.00;99.90;;;;;;5079788;28;20036;-70
2022/02/23 12:08:32;;;;;;;9.57;1.05;;;9.10;99.90;;;;;;5079206;28;20490;-70
2022/02/23 12:10:59;;;;;;;11.23;1.23;;;9.20;99.90;;;;;;5079787;28;20020;-70
2022/02/23 12:13:49;;;;;;;10.57;1.92;;;9.20;99.90;;;;;;5079644;28;20023;-70
2022/02/23 12:16:45;;;;;;;8.90;1.17;;;9.30;99.90;;;;;;5078827;28;20028;-70
2022/02/23 12:19:14;;;;;;;10.57;2.30;;;9.40;99.90;;;;;;5079224;28;20044;-70
2022/02/23 12:21:48;;;;;;;5.53;1.58;;;9.50;99.90;;;;;;5062107;28;20036;-70
2022/02/23 12:24:20;;;;;;;9.68;1.30;;;9.60;99.90;;;;;;5058205;28;20040;-70
2022/02/23 12:26:54;;;;;;;7.57;1.35;;;9.60;99.90;;;;;;5057933;28;20021;-70
2022/02/23 12:29:29;;;;;;;8.77;1.48;;;9.60;99.90;;;;;;5059828;28;20025;-70
2022/02/23 12:32:06;;;;;;;10.30;1.70;;;9.60;99.90;;;;;;5060088;28;20111;-70
2022/02/23 12:34:34;;;;;;;7.93;1.90;;;9.70;99.90;;;;;;5058399;28;20301;-70
2022/02/23 12:37:04;;;;;;;8.82;1.73;;;9.60;99.90;;;;;;5057717;28;20452;-71
2022/02/23 12:39:36;;;;;;;10.27;1.65;;;9.60;99.90;;;;;;5058587;28;20044;-71
2022/02/23 12:42:08;;;;;;;25.95;2.03;;;9.60;99.90;;;;;;5058567;28;20052;-70
2022/02/23 12:44:47;;;;;;;10.88;1.98;;;9.60;99.90;;;;;;5058748;28;20024;-70
2022/02/23 12:47:17;;;;;;;9.77;1.60;;;9.60;99.90;;;;;;5058412;28;20321;-70
2022/02/23 12:49:45;;;;;;;7.40;1.10;;;9.60;99.90;;;;;;5058207;28;20021;-70
2022/02/23 12:52:12;;;;;;;11.02;1.30;;;9.60;99.90;;;;;;5058940;28;20021;-70
2022/02/23 12:54:40;;;;;;;7.57;1.83;;;9.60;99.90;;;;;;5059457;28;20017;-70
2022/02/23 12:57:08;;;;;;;9.27;2.55;;;9.70;99.90;;;;;;5058987;28;20279;-70
2022/02/23 12:59:39;;;;;;;9.52;1.58;;;9.70;99.90;;;;;;5059109;28;20104;-70
2022/02/23 13:02:12;;;;;;;13.57;1.88;;;9.70;99.90;;;;;;5058925;28;20021;-70
2022/02/23 13:04:44;;;;;;;8.52;1.02;;;9.70;99.90;;;;;;5058979;28;20444;-70